Time;durP1;ratioP1;P1;durP2;ratioP2;P2;SDS_P1;SDS_P2;PMS_P1;PMS_P2;Temp;Humidity;BMP_temperature;BMP_pressure;BME280_temperature;BME280_humidity;BME280_pressure;Samples;Min_cycle;Max_cycle;Signal;HPM_P1;HPM_P2
2021/08/10 00:01:28;;;;;;;7.78;2.28;;;;;;;;;;4934569;29;20500;-84
2021/08/10 00:03:54;;;;;;;3.65;1.77;;;;;;;;;;4937357;29;20035;-84
2021/08/10 00:06:21;;;;;;;3.17;1.83;;;;;;;;;;4939302;29;20355;-87
2021/08/10 00:08:47;;;;;;;4.53;1.48;;;;;;;;;;4938033;29;20040;-87
2021/08/10 00:11:13;;;;;;;3.88;1.63;;;;;;;;;;4938006;29;20118;-86
2021/08/10 00:13:39;;;;;;;3.92;2.08;;;;;;;;;;4937819;29;20035;-87
2021/08/10 00:16:06;;;;;;;5.28;2.00;;;;;;;;;;4937993;29;20031;-85
2021/08/10 00:18:32;;;;;;;3.75;1.67;;;;;;;;;;4939158;29;20068;-86
2021/08/10 00:20:58;;;;;;;3.83;1.88;;;;;;;;;;4937735;29;20032;-86
2021/08/10 00:23:25;;;;;;;6.78;1.88;;;;;;;;;;4937775;29;20034;-84
2021/08/10 00:25:51;;;;;;;3.72;1.70;;;;;;;;;;4937664;29;20142;-87
2021/08/10 00:28:17;;;;;;;4.82;1.88;;;;;;;;;;4937649;29;20035;-86
2021/08/10 00:30:44;;;;;;;4.45;2.10;;;;;;;;;;4939293;29;20024;-84
2021/08/10 00:33:11;;;;;;;5.03;1.92;;;;;;;;;;4938881;29;20448;-88
2021/08/10 00:35:37;;;;;;;6.22;1.75;;;;;;;;;;4937688;29;20031;-84
2021/08/10 00:38:04;;;;;;;4.25;1.80;;;;;;;;;;4937482;29;20032;-84
2021/08/10 00:40:31;;;;;;;4.05;1.63;;;;;;;;;;4937433;29;20027;-88
2021/08/10 00:42:57;;;;;;;7.40;1.60;;;;;;;;;;4937602;29;20028;-87
2021/08/10 00:45:23;;;;;;;3.47;1.60;;;;;;;;;;4937430;29;20135;-87
2021/08/10 00:47:50;;;;;;;4.57;1.63;;;;;;;;;;4937295;29;20032;-84
2021/08/10 00:50:16;;;;;;;8.45;1.45;;;;;;;;;;4938605;29;20473;-85
2021/08/10 00:52:43;;;;;;;2.90;1.80;;;;;;;;;;4937151;29;20187;-85
2021/08/10 00:55:09;;;;;;;3.97;1.70;;;;;;;;;;4937085;29;20044;-86
2021/08/10 00:57:35;;;;;;;4.95;1.40;;;;;;;;;;4937210;29;20058;-84
2021/08/10 01:00:02;;;;;;;6.50;1.30;;;;;;;;;;4938897;29;20032;-87
2021/08/10 01:02:28;;;;;;;3.35;1.38;;;;;;;;;;4937011;29;20050;-87
2021/08/10 01:04:54;;;;;;;5.90;1.48;;;;;;;;;;4937145;29;20024;-86
2021/08/10 01:07:29;;;;;;;2.22;1.15;;;;;;;;;;4937115;29;20504;-88
2021/08/10 01:10:12;;;;;;;2.88;1.05;;;;;;;;;;4937080;29;20032;-88
2021/08/10 01:12:43;;;;;;;6.03;1.10;;;;;;;;;;4938608;29;20031;-86
2021/08/10 01:15:14;;;;;;;5.95;1.17;;;;;;;;;;4937152;29;20067;-88
2021/08/10 01:17:44;;;;;;;3.47;1.17;;;;;;;;;;4936827;29;20091;-88
2021/08/10 01:20:29;;;;;;;3.50;0.90;;;;;;;;;;4936826;29;20027;-87
2021/08/10 01:22:56;;;;;;;2.42;1.15;;;;;;;;;;4936639;29;20470;-86
2021/08/10 01:25:25;;;;;;;2.22;0.90;;;;;;;;;;4937906;29;20028;-87
2021/08/10 01:28:03;;;;;;;2.15;1.15;;;;;;;;;;4936584;29;20028;-87
2021/08/10 01:30:36;;;;;;;2.55;1.20;;;;;;;;;;4936644;29;20042;-87
2021/08/10 01:33:05;;;;;;;2.77;1.10;;;;;;;;;;4936397;29;20035;-88
2021/08/10 01:35:33;;;;;;;1.77;0.88;;;;;;;;;;4936675;29;20123;-88
2021/08/10 01:38:00;;;;;;;13.52;1.30;;;;;;;;;;4936418;29;20163;-87
2021/08/10 01:40:27;;;;;;;3.80;0.82;;;;;;;;;;4936681;29;20532;-86
2021/08/10 01:42:54;;;;;;;2.33;1.15;;;;;;;;;;4936308;29;20392;-88
2021/08/10 01:45:20;;;;;;;7.43;1.10;;;;;;;;;;4936402;29;20035;-88
2021/08/10 01:47:47;;;;;;;5.55;1.17;;;;;;;;;;4936532;29;20377;-85
2021/08/10 01:50:13;;;;;;;4.93;0.90;;;;;;;;;;4936115;29;20152;-87
2021/08/10 01:52:42;;;;;;;2.17;0.93;;;;;;;;;;4935961;29;20557;-87
2021/08/10 01:55:09;;;;;;;2.25;1.10;;;;;;;;;;4936025;29;20179;-87
2021/08/10 01:57:35;;;;;;;2.72;0.98;;;;;;;;;;4936092;29;20027;-86
2021/08/10 02:00:02;;;;;;;3.45;1.10;;;;;;;;;;4936002;29;20465;-84
2021/08/10 02:02:28;;;;;;;1.75;1.02;;;;;;;;;;4937619;29;20035;-87
2021/08/10 02:04:54;;;;;;;2.60;0.98;;;;;;;;;;4935888;29;20425;-86
2021/08/10 02:07:23;;;;;;;2.33;0.80;;;;;;;;;;4936026;29;20086;-87
2021/08/10 02:09:49;;;;;;;1.83;0.77;;;;;;;;;;4935819;29;20054;-86
2021/08/10 02:12:16;;;;;;;2.67;0.68;;;;;;;;;;4936724;29;20130;-87
2021/08/10 02:14:44;;;;;;;1.63;0.73;;;;;;;;;;4935813;29;20039;-87
2021/08/10 02:17:13;;;;;;;1.70;0.70;;;;;;;;;;4935811;29;20024;-87
2021/08/10 02:19:39;;;;;;;1.15;0.55;;;;;;;;;;4935674;29;20086;-87
2021/08/10 02:22:07;;;;;;;5.28;0.93;;;;;;;;;;4935581;29;20024;-88
2021/08/10 02:24:39;;;;;;;2.40;0.82;;;;;;;;;;4935556;29;20043;-85
2021/08/10 02:27:06;;;;;;;1.60;0.70;;;;;;;;;;4935612;29;20540;-88
2021/08/10 02:29:38;;;;;;;4.47;1.02;;;;;;;;;;4935462;29;20027;-84
2021/08/10 02:32:05;;;;;;;4.03;0.90;;;;;;;;;;4935426;29;20070;-88
2021/08/10 02:34:31;;;;;;;2.05;0.90;;;;;;;;;;4935380;29;20073;-87
2021/08/10 02:36:59;;;;;;;1.80;1.00;;;;;;;;;;4935371;29;20027;-88
2021/08/10 02:39:26;;;;;;;1.35;0.75;;;;;;;;;;4935430;29;20031;-87
2021/08/10 02:41:53;;;;;;;1.88;0.80;;;;;;;;;;4935380;29;20039;-87
2021/08/10 02:44:19;;;;;;;2.22;0.90;;;;;;;;;;4936547;29;20035;-84
2021/08/10 02:46:46;;;;;;;1.80;0.75;;;;;;;;;;4937028;29;20462;-88
2021/08/10 02:49:12;;;;;;;2.10;0.90;;;;;;;;;;4935215;29;20028;-85
2021/08/10 02:51:39;;;;;;;7.75;1.02;;;;;;;;;;4935000;29;20063;-84
2021/08/10 02:54:06;;;;;;;1.80;0.90;;;;;;;;;;4935128;29;20036;-86
2021/08/10 02:56:34;;;;;;;3.80;1.38;;;;;;;;;;4935064;29;20034;-87
2021/08/10 02:59:02;;;;;;;4.30;0.93;;;;;;;;;;4935145;29;20031;-87
2021/08/10 03:01:38;;;;;;;1.67;1.00;;;;;;;;;;4936219;29;20087;-87
2021/08/10 03:04:06;;;;;;;2.67;1.00;;;;;;;;;;4935022;29;20445;-87
2021/08/10 03:06:33;;;;;;;1.67;0.80;;;;;;;;;;4936325;29;20541;-87
2021/08/10 03:09:00;;;;;;;2.53;1.05;;;;;;;;;;4935056;29;20038;-84
2021/08/10 03:11:26;;;;;;;2.38;0.82;;;;;;;;;;4936254;29;20062;-88
2021/08/10 03:13:53;;;;;;;4.93;0.98;;;;;;;;;;4934955;29;20087;-85
2021/08/10 03:16:20;;;;;;;3.78;1.02;;;;;;;;;;4934905;29;20059;-88
2021/08/10 03:18:50;;;;;;;2.55;1.30;;;;;;;;;;4934978;29;20071;-85
2021/08/10 03:21:16;;;;;;;3.50;0.80;;;;;;;;;;4934960;29;20046;-87
2021/08/10 03:23:44;;;;;;;3.67;0.90;;;;;;;;;;4934911;29;20433;-86
2021/08/10 03:26:11;;;;;;;6.60;1.38;;;;;;;;;;4934916;29;20027;-85
2021/08/10 03:28:41;;;;;;;2.13;1.17;;;;;;;;;;4936152;29;20049;-84
2021/08/10 03:31:08;;;;;;;2.35;1.13;;;;;;;;;;4936752;29;20020;-86
2021/08/10 03:33:34;;;;;;;2.17;0.95;;;;;;;;;;4934702;29;20421;-87
2021/08/10 03:36:01;;;;;;;2.75;0.90;;;;;;;;;;4934749;29;20131;-86
2021/08/10 03:38:27;;;;;;;2.45;0.88;;;;;;;;;;4937229;29;20034;-86
2021/08/10 03:40:54;;;;;;;4.13;1.20;;;;;;;;;;4938833;29;20393;-87
2021/08/10 03:43:20;;;;;;;3.33;0.90;;;;;;;;;;4938570;29;20465;-85
2021/08/10 03:45:47;;;;;;;3.03;0.93;;;;;;;;;;4938662;29;20465;-87
2021/08/10 03:48:14;;;;;;;2.28;0.95;;;;;;;;;;4938325;29;20032;-84
2021/08/10 03:50:40;;;;;;;2.97;1.10;;;;;;;;;;4938340;29;20508;-87
2021/08/10 03:53:07;;;;;;;11.05;1.48;;;;;;;;;;4938135;29;20161;-88
2021/08/10 03:55:34;;;;;;;3.30;1.10;;;;;;;;;;4938209;29;20035;-85
2021/08/10 03:58:00;;;;;;;1.70;1.00;;;;;;;;;;4938187;29;20437;-87
2021/08/10 04:00:27;;;;;;;4.40;1.52;;;;;;;;;;4938136;29;20083;-87
2021/08/10 04:02:53;;;;;;;3.28;1.48;;;;;;;;;;4938027;29;20122;-85
2021/08/10 04:05:20;;;;;;;3.53;1.10;;;;;;;;;;4937975;29;20062;-87
2021/08/10 04:07:46;;;;;;;3.40;1.00;;;;;;;;;;4937971;29;20127;-85
2021/08/10 04:10:12;;;;;;;4.07;1.08;;;;;;;;;;4938052;29;20051;-85
2021/08/10 04:12:39;;;;;;;2.30;1.08;;;;;;;;;;4937919;29;20028;-86
2021/08/10 04:15:06;;;;;;;2.22;1.00;;;;;;;;;;4938018;29;20448;-86
2021/08/10 04:17:35;;;;;;;2.40;0.98;;;;;;;;;;4937814;29;20047;-87
2021/08/10 04:20:02;;;;;;;2.60;1.27;;;;;;;;;;4939075;29;20132;-84
2021/08/10 04:22:28;;;;;;;8.55;1.23;;;;;;;;;;4937737;29;20035;-87
2021/08/10 04:24:55;;;;;;;2.70;0.75;;;;;;;;;;4937626;29;20496;-86
2021/08/10 04:27:21;;;;;;;1.42;0.77;;;;;;;;;;4938897;29;20020;-86
2021/08/10 04:29:47;;;;;;;2.42;0.82;;;;;;;;;;4939503;29;20430;-85
2021/08/10 04:32:13;;;;;;;4.78;1.20;;;;;;;;;;4937762;29;20063;-86
2021/08/10 04:34:40;;;;;;;2.30;1.00;;;;;;;;;;4937700;29;20035;-87
2021/08/10 04:37:06;;;;;;;2.53;0.95;;;;;;;;;;4937457;29;20028;-87
2021/08/10 04:39:33;;;;;;;1.70;0.70;;;;;;;;;;4937525;29;20032;-85
2021/08/10 04:41:59;;;;;;;6.72;1.00;;;;;;;;;;4938624;29;20077;-86
2021/08/10 04:44:25;;;;;;;2.40;0.90;;;;;;;;;;4939216;29;20079;-85
2021/08/10 04:46:51;;;;;;;1.63;0.80;;;;;;;;;;4937303;29;20032;-85
2021/08/10 04:49:18;;;;;;;3.30;0.90;;;;;;;;;;4937360;29;20040;-87
2021/08/10 04:51:44;;;;;;;2.35;1.02;;;;;;;;;;4938253;29;20051;-87
2021/08/10 04:54:16;;;;;;;2.88;0.88;;;;;;;;;;4937075;29;20039;-87
2021/08/10 04:56:42;;;;;;;3.00;0.90;;;;;;;;;;4937213;29;20020;-87
2021/08/10 04:59:08;;;;;;;2.95;0.70;;;;;;;;;;4937073;29;20028;-87
2021/08/10 05:01:34;;;;;;;8.25;1.13;;;;;;;;;;4936942;29;20030;-82
2021/08/10 05:04:01;;;;;;;2.75;0.70;;;;;;;;;;4938743;29;20035;-85
2021/08/10 05:06:27;;;;;;;4.20;0.88;;;;;;;;;;4937151;29;20123;-81
2021/08/10 05:08:53;;;;;;;2.42;0.70;;;;;;;;;;4936960;29;20031;-87
2021/08/10 05:11:20;;;;;;;0.77;0.40;;;;;;;;;;4936726;29;20110;-86
2021/08/10 05:13:46;;;;;;;2.17;1.05;;;;;;;;;;4936765;29;20035;-87
2021/08/10 05:16:12;;;;;;;1.70;0.63;;;;;;;;;;4937233;29;20032;-86
2021/08/10 05:18:39;;;;;;;1.98;0.52;;;;;;;;;;4937268;29;20032;-85
2021/08/10 05:21:05;;;;;;;1.25;0.60;;;;;;;;;;4936805;29;20036;-87
2021/08/10 05:23:35;;;;;;;4.53;1.60;;;;;;;;;;4936659;29;20548;-87
2021/08/10 05:26:01;;;;;;;1.85;0.57;;;;;;;;;;4938161;28;20032;-86
2021/08/10 05:28:27;;;;;;;4.95;0.95;;;;;;;;;;4956457;28;20611;-88
2021/08/10 05:30:53;;;;;;;8.88;1.27;;;;;;;;;;4955794;29;20034;-87
2021/08/10 05:33:19;;;;;;;7.40;1.30;;;;;;;;;;4956789;28;20035;-83
2021/08/10 05:35:45;;;;;;;3.50;0.73;;;;;;;;;;4956524;28;20031;-83
2021/08/10 05:38:11;;;;;;;5.38;0.95;;;;;;;;;;4954992;29;20028;-84
2021/08/10 05:40:37;;;;;;;3.85;1.23;;;;;;;;;;4955462;29;20365;-85
2021/08/10 05:43:04;;;;;;;7.43;1.10;;;;;;;;;;4956619;28;20110;-84
2021/08/10 05:45:30;;;;;;;3.25;1.10;;;;;;;;;;4956522;28;20109;-84
2021/08/10 05:47:56;;;;;;;3.22;1.00;;;;;;;;;;4955133;29;20059;-85
2021/08/10 05:50:22;;;;;;;2.42;0.90;;;;;;;;;;4955226;29;20058;-84
2021/08/10 05:52:49;;;;;;;2.05;0.82;;;;;;;;;;4956345;28;20058;-87
2021/08/10 05:55:15;;;;;;;3.65;0.90;;;;;;;;;;4954955;29;20035;-85
2021/08/10 05:57:41;;;;;;;2.20;0.93;;;;;;;;;;4955057;29;20028;-84
2021/08/10 06:00:08;;;;;;;3.92;1.10;;;;;;;;;;4955845;28;20034;-84
2021/08/10 06:02:37;;;;;;;1.60;0.55;;;;;;;;;;4954990;29;20037;-84
2021/08/10 06:05:04;;;;;;;2.03;0.60;;;;;;;;;;4954933;29;20038;-85
2021/08/10 06:07:30;;;;;;;4.30;0.60;;;;;;;;;;4954823;29;20027;-85
2021/08/10 06:09:56;;;;;;;2.00;0.73;;;;;;;;;;4956127;28;20023;-85
2021/08/10 06:12:22;;;;;;;2.08;0.52;;;;;;;;;;4954814;29;20031;-83
2021/08/10 06:14:48;;;;;;;2.03;0.85;;;;;;;;;;4955896;28;20035;-83
2021/08/10 06:17:14;;;;;;;4.85;0.90;;;;;;;;;;4954745;29;20114;-83
2021/08/10 06:19:40;;;;;;;3.13;0.80;;;;;;;;;;4954705;29;20024;-85
2021/08/10 06:22:08;;;;;;;4.30;0.70;;;;;;;;;;4954536;29;20055;-85
2021/08/10 06:24:34;;;;;;;1.67;0.63;;;;;;;;;;4954658;29;20027;-85
2021/08/10 06:27:00;;;;;;;1.60;0.77;;;;;;;;;;4954542;29;20031;-85
2021/08/10 06:29:26;;;;;;;2.45;0.60;;;;;;;;;;4954564;29;20035;-84
2021/08/10 06:31:52;;;;;;;1.92;0.60;;;;;;;;;;4954401;29;20113;-85
2021/08/10 06:34:18;;;;;;;7.93;0.77;;;;;;;;;;4954399;29;20043;-84
2021/08/10 06:36:45;;;;;;;1.45;0.70;;;;;;;;;;4954541;29;20091;-85
2021/08/10 06:39:11;;;;;;;1.83;0.70;;;;;;;;;;4954357;29;20038;-85
2021/08/10 06:41:37;;;;;;;2.15;0.95;;;;;;;;;;4954346;29;20029;-86
2021/08/10 06:44:03;;;;;;;3.10;0.90;;;;;;;;;;4955496;28;20050;-84
2021/08/10 06:46:30;;;;;;;1.90;0.90;;;;;;;;;;4955901;28;20392;-86
2021/08/10 06:48:56;;;;;;;2.08;0.80;;;;;;;;;;4955538;28;20063;-86
2021/08/10 06:51:25;;;;;;;1.40;0.65;;;;;;;;;;4953989;29;20079;-84
2021/08/10 06:53:51;;;;;;;4.82;1.08;;;;;;;;;;4954019;29;20050;-87
2021/08/10 06:56:17;;;;;;;2.80;0.80;;;;;;;;;;4954145;29;20062;-86
2021/08/10 06:58:43;;;;;;;2.28;0.80;;;;;;;;;;4954156;29;20069;-86
2021/08/10 07:01:09;;;;;;;2.17;0.82;;;;;;;;;;4938265;29;20027;-84
2021/08/10 07:03:35;;;;;;;4.32;0.90;;;;;;;;;;4954087;29;20027;-88
2021/08/10 07:06:01;;;;;;;2.15;1.13;;;;;;;;;;4954048;29;20066;-83
2021/08/10 07:08:27;;;;;;;1.63;0.60;;;;;;;;;;4954169;29;20075;-84
2021/08/10 07:10:53;;;;;;;3.53;0.85;;;;;;;;;;4954210;29;20527;-84
2021/08/10 07:13:20;;;;;;;1.65;0.80;;;;;;;;;;4953196;29;20061;-85
2021/08/10 07:15:46;;;;;;;5.57;0.98;;;;;;;;;;4953915;29;20031;-84
2021/08/10 07:18:12;;;;;;;2.63;0.90;;;;;;;;;;4953929;29;20027;-86
2021/08/10 07:20:38;;;;;;;4.70;0.90;;;;;;;;;;4955221;28;20042;-85
2021/08/10 07:23:04;;;;;;;7.22;1.25;;;;;;;;;;4953815;29;20125;-84
2021/08/10 07:25:30;;;;;;;10.35;1.00;;;;;;;;;;4953681;29;20391;-84
2021/08/10 07:27:57;;;;;;;4.90;1.20;;;;;;;;;;4953777;29;20023;-86
2021/08/10 07:30:23;;;;;;;4.60;0.85;;;;;;;;;;4955417;28;20031;-87
2021/08/10 07:32:50;;;;;;;2.13;0.80;;;;;;;;;;4953691;29;20023;-87
2021/08/10 07:35:16;;;;;;;3.30;1.00;;;;;;;;;;4953563;29;20043;-87
2021/08/10 07:37:43;;;;;;;5.65;0.70;;;;;;;;;;4954107;29;20027;-87
2021/08/10 07:40:13;;;;;;;3.47;1.08;;;;;;;;;;4953475;29;20461;-84
2021/08/10 07:42:39;;;;;;;2.92;0.98;;;;;;;;;;4953660;29;20536;-85
2021/08/10 07:45:06;;;;;;;2.67;0.80;;;;;;;;;;4953659;29;20027;-85
2021/08/10 07:47:35;;;;;;;2.38;0.85;;;;;;;;;;4953740;29;20182;-84
2021/08/10 07:50:01;;;;;;;3.25;0.85;;;;;;;;;;4953463;29;20035;-85
2021/08/10 07:52:27;;;;;;;5.57;1.10;;;;;;;;;;4953394;29;20050;-84
2021/08/10 07:54:53;;;;;;;2.30;0.95;;;;;;;;;;4953605;29;20039;-85
2021/08/10 07:57:20;;;;;;;1.48;0.75;;;;;;;;;;4954718;28;20388;-85
2021/08/10 07:59:46;;;;;;;4.38;1.08;;;;;;;;;;4954978;28;20024;-88
2021/08/10 08:02:12;;;;;;;2.17;0.85;;;;;;;;;;4953532;29;20126;-83
2021/08/10 08:04:38;;;;;;;1.42;0.60;;;;;;;;;;4955243;28;20029;-84
2021/08/10 08:07:05;;;;;;;1.30;0.60;;;;;;;;;;4954768;28;20078;-88
2021/08/10 08:09:31;;;;;;;2.72;0.88;;;;;;;;;;4953494;29;20027;-84
2021/08/10 08:11:57;;;;;;;3.53;0.70;;;;;;;;;;4953685;29;20038;-85
2021/08/10 08:14:23;;;;;;;2.63;0.73;;;;;;;;;;4953392;29;20122;-85
2021/08/10 08:16:49;;;;;;;1.92;0.80;;;;;;;;;;4954694;28;20050;-85
2021/08/10 08:19:16;;;;;;;2.45;0.80;;;;;;;;;;4953529;29;20028;-84
2021/08/10 08:21:42;;;;;;;1.50;0.80;;;;;;;;;;4954542;28;20170;-87
2021/08/10 08:24:08;;;;;;;1.30;0.55;;;;;;;;;;4954913;28;20051;-86
2021/08/10 08:26:34;;;;;;;1.63;0.80;;;;;;;;;;4956891;29;20126;-87
2021/08/10 08:29:01;;;;;;;1.70;0.75;;;;;;;;;;4958006;28;20059;-87
2021/08/10 08:31:27;;;;;;;4.38;1.30;;;;;;;;;;4956763;29;20027;-87
2021/08/10 08:33:53;;;;;;;2.50;0.65;;;;;;;;;;4957986;28;20047;-87
2021/08/10 08:36:19;;;;;;;2.22;1.00;;;;;;;;;;4957688;29;20027;-87
2021/08/10 08:38:45;;;;;;;1.40;0.75;;;;;;;;;;4956495;29;20024;-87
2021/08/10 08:41:14;;;;;;;2.95;0.70;;;;;;;;;;4957906;29;20023;-86
2021/08/10 08:43:40;;;;;;;2.17;0.80;;;;;;;;;;4956538;29;20035;-87
2021/08/10 08:46:06;;;;;;;8.88;0.82;;;;;;;;;;4959023;29;20118;-87
2021/08/10 08:48:33;;;;;;;3.45;0.88;;;;;;;;;;4958431;29;20031;-86
2021/08/10 08:51:04;;;;;;;2.10;0.68;;;;;;;;;;4956159;29;20377;-87
2021/08/10 08:53:31;;;;;;;2.67;0.70;;;;;;;;;;4956376;29;20035;-87
2021/08/10 08:55:57;;;;;;;1.77;0.73;;;;;;;;;;4958158;28;20039;-87
2021/08/10 08:58:24;;;;;;;2.38;0.80;;;;;;;;;;4958060;29;20027;-87
2021/08/10 09:00:50;;;;;;;2.15;0.60;;;;;;;;;;4956195;29;20038;-87
2021/08/10 09:03:16;;;;;;;2.72;0.73;;;;;;;;;;4957395;28;20034;-87
2021/08/10 09:05:45;;;;;;;1.90;0.77;;;;;;;;;;4956135;29;20589;-87
2021/08/10 09:08:31;;;;;;;1.92;0.75;;;;;;;;;;4956105;29;20028;-86
2021/08/10 09:11:18;;;;;;;2.30;0.80;;;;;;;;;;4955977;29;20023;-87
2021/08/10 09:14:03;;;;;;;3.38;0.80;;;;;;;;;;4955673;29;20098;-87
2021/08/10 09:16:29;;;;;;;1.90;0.90;;;;;;;;;;4955723;29;20035;-87
2021/08/10 09:18:56;;;;;;;1.55;0.70;;;;;;;;;;4955883;29;20393;-86
2021/08/10 09:21:23;;;;;;;1.20;0.75;;;;;;;;;;4957050;28;20027;-86
2021/08/10 09:23:50;;;;;;;2.00;0.70;;;;;;;;;;4956984;28;20038;-87
2021/08/10 09:26:19;;;;;;;4.07;1.00;;;;;;;;;;4955684;29;20089;-86
2021/08/10 09:28:45;;;;;;;1.95;0.73;;;;;;;;;;4957556;28;20030;-87
2021/08/10 09:31:30;;;;;;;1.80;0.70;;;;;;;;;;4955199;29;20030;-87
2021/08/10 09:33:57;;;;;;;2.53;0.80;;;;;;;;;;4955421;29;20027;-86
2021/08/10 09:36:23;;;;;;;3.58;0.70;;;;;;;;;;4956021;28;20030;-87
2021/08/10 09:38:50;;;;;;;2.00;0.80;;;;;;;;;;4955584;29;20030;-87
2021/08/10 09:41:16;;;;;;;5.05;0.93;;;;;;;;;;4955441;29;20497;-86
2021/08/10 09:43:42;;;;;;;1.95;0.70;;;;;;;;;;4956607;28;20030;-86
2021/08/10 09:46:14;;;;;;;1.10;0.60;;;;;;;;;;4955281;29;20043;-86
2021/08/10 09:48:42;;;;;;;2.30;0.80;;;;;;;;;;4956402;28;20059;-86
2021/08/10 09:51:09;;;;;;;3.28;0.90;;;;;;;;;;4954982;29;20577;-86
2021/08/10 09:53:36;;;;;;;5.78;0.98;;;;;;;;;;4956650;28;20031;-86
2021/08/10 09:56:02;;;;;;;2.28;0.82;;;;;;;;;;4956351;28;20042;-86
2021/08/10 09:58:28;;;;;;;4.10;0.80;;;;;;;;;;4954963;29;20033;-87
2021/08/10 10:01:00;;;;;;;2.75;0.95;;;;;;;;;;4954980;29;20397;-86
2021/08/10 10:03:27;;;;;;;3.22;0.93;;;;;;;;;;4954976;29;20480;-86
2021/08/10 10:05:53;;;;;;;3.38;1.10;;;;;;;;;;4955238;29;20491;-86
2021/08/10 10:08:20;;;;;;;1.95;0.98;;;;;;;;;;4954910;29;20019;-86
2021/08/10 10:10:47;;;;;;;1.73;1.00;;;;;;;;;;4954833;29;20062;-84
2021/08/10 10:13:17;;;;;;;2.13;0.93;;;;;;;;;;4956477;28;20027;-86
2021/08/10 10:15:44;;;;;;;3.22;1.00;;;;;;;;;;4956003;28;20065;-86
2021/08/10 10:18:11;;;;;;;2.45;0.77;;;;;;;;;;4956083;28;20476;-86
2021/08/10 10:20:38;;;;;;;1.75;0.80;;;;;;;;;;4954634;29;20069;-86
2021/08/10 10:23:05;;;;;;;2.58;1.00;;;;;;;;;;4954847;29;20413;-87
2021/08/10 10:25:33;;;;;;;1.83;0.77;;;;;;;;;;4954680;29;20046;-87
2021/08/10 10:27:59;;;;;;;2.03;0.90;;;;;;;;;;4955714;28;20086;-87
2021/08/10 10:30:29;;;;;;;2.40;1.23;;;;;;;;;;4956394;29;20057;-86
2021/08/10 10:32:55;;;;;;;1.67;0.77;;;;;;;;;;4955044;29;20031;-87
2021/08/10 10:35:22;;;;;;;3.15;0.80;;;;;;;;;;4954824;29;20031;-87
2021/08/10 10:37:50;;;;;;;2.28;0.90;;;;;;;;;;4955737;28;20031;-87
2021/08/10 10:40:20;;;;;;;3.63;0.80;;;;;;;;;;4954596;29;20035;-86
2021/08/10 10:42:47;;;;;;;2.55;0.80;;;;;;;;;;4954514;29;20024;-86
2021/08/10 10:45:32;;;;;;;3.42;1.13;;;;;;;;;;4955886;28;20031;-87
2021/08/10 10:47:58;;;;;;;2.85;1.00;;;;;;;;;;4953757;28;20028;-85
2021/08/10 10:50:24;;;;;;;2.70;1.38;;;;;;;;;;4954403;29;20495;-85
2021/08/10 10:53:04;;;;;;;2.03;1.00;;;;;;;;;;4954325;29;20411;-86
2021/08/10 10:55:34;;;;;;;1.80;0.90;;;;;;;;;;4954226;29;20050;-86
2021/08/10 10:58:00;;;;;;;2.97;1.13;;;;;;;;;;4954435;29;20111;-86
2021/08/10 11:00:29;;;;;;;6.88;1.30;;;;;;;;;;4954064;29;20033;-87
2021/08/10 11:03:08;;;;;;;2.90;1.00;;;;;;;;;;4954148;29;20396;-87
2021/08/10 11:05:34;;;;;;;2.70;1.08;;;;;;;;;;4953969;29;20456;-85
2021/08/10 11:08:00;;;;;;;2.42;1.10;;;;;;;;;;4954112;29;20408;-85
2021/08/10 11:10:41;;;;;;;2.13;1.17;;;;;;;;;;4955186;28;20090;-85
2021/08/10 11:13:19;;;;;;;4.50;1.15;;;;;;;;;;4955368;28;20527;-85
2021/08/10 11:15:45;;;;;;;2.97;1.27;;;;;;;;;;4953863;29;20039;-84
2021/08/10 11:18:12;;;;;;;2.83;1.20;;;;;;;;;;4953992;29;20035;-85
2021/08/10 11:20:40;;;;;;;8.50;1.23;;;;;;;;;;4953896;29;20157;-84
2021/08/10 11:23:25;;;;;;;1.80;1.00;;;;;;;;;;4954147;29;20031;-84
2021/08/10 11:26:14;;;;;;;1.90;0.90;;;;;;;;;;4954395;28;20027;-84
2021/08/10 11:28:50;;;;;;;3.70;1.27;;;;;;;;;;4954382;28;20090;-84
2021/08/10 11:31:34;;;;;;;5.88;1.70;;;;;;;;;;4953993;29;20027;-84
2021/08/10 11:34:00;;;;;;;11.98;1.35;;;;;;;;;;4955012;28;20472;-84
2021/08/10 11:36:27;;;;;;;3.45;1.30;;;;;;;;;;4954960;28;20051;-83
2021/08/10 11:38:53;;;;;;;8.00;1.42;;;;;;;;;;4955060;28;20033;-84
2021/08/10 11:41:30;;;;;;;4.15;1.20;;;;;;;;;;4953864;29;20397;-85
2021/08/10 11:43:57;;;;;;;3.15;1.20;;;;;;;;;;4953841;29;20031;-84
2021/08/10 11:46:27;;;;;;;5.72;1.27;;;;;;;;;;4953677;29;20024;-84
2021/08/10 11:48:54;;;;;;;2.13;1.10;;;;;;;;;;4955646;28;20086;-84
2021/08/10 11:51:28;;;;;;;3.25;1.27;;;;;;;;;;4953436;29;20047;-84
2021/08/10 11:53:55;;;;;;;3.75;1.17;;;;;;;;;;4953618;29;20480;-84
2021/08/10 11:56:26;;;;;;;3.13;1.30;;;;;;;;;;4953468;29;20499;-85
2021/08/10 11:58:53;;;;;;;2.88;1.05;;;;;;;;;;4955140;28;20027;-84
2021/08/10 12:01:19;;;;;;;3.05;1.30;;;;;;;;;;4957223;29;20027;-84
2021/08/10 12:03:45;;;;;;;5.28;1.13;;;;;;;;;;4957264;29;20063;-84
2021/08/10 12:06:12;;;;;;;2.90;1.40;;;;;;;;;;4957189;29;20046;-84
2021/08/10 12:08:39;;;;;;;2.65;1.30;;;;;;;;;;4958232;28;20101;-84
2021/08/10 12:11:05;;;;;;;6.65;1.17;;;;;;;;;;4958732;28;20027;-83
2021/08/10 12:13:32;;;;;;;2.45;1.17;;;;;;;;;;4956919;29;20038;-84
2021/08/10 12:15:58;;;;;;;3.92;1.65;;;;;;;;;;4957071;29;20038;-84
2021/08/10 12:18:26;;;;;;;3.80;1.45;;;;;;;;;;4956914;29;20035;-84
2021/08/10 12:20:58;;;;;;;1.80;1.08;;;;;;;;;;4957033;29;20079;-84
2021/08/10 12:23:25;;;;;;;4.07;0.98;;;;;;;;;;4956936;29;20051;-85
2021/08/10 12:25:51;;;;;;;2.60;1.30;;;;;;;;;;4956797;29;20507;-85
2021/08/10 12:28:18;;;;;;;5.50;1.33;;;;;;;;;;4956716;29;20026;-85
2021/08/10 12:30:44;;;;;;;2.30;1.20;;;;;;;;;;4956781;29;20138;-85
2021/08/10 12:33:11;;;;;;;2.53;1.10;;;;;;;;;;4957958;28;20020;-85
2021/08/10 12:35:37;;;;;;;2.85;1.10;;;;;;;;;;4956652;29;20130;-85
2021/08/10 12:38:05;;;;;;;5.28;1.20;;;;;;;;;;4956642;29;20484;-85
2021/08/10 12:40:31;;;;;;;2.67;1.25;;;;;;;;;;4956522;29;20038;-84
2021/08/10 12:42:57;;;;;;;5.65;1.10;;;;;;;;;;4956528;29;20404;-85
2021/08/10 12:45:33;;;;;;;2.13;1.13;;;;;;;;;;4956499;29;20038;-85
2021/08/10 12:47:59;;;;;;;3.03;1.20;;;;;;;;;;4956497;29;20143;-85
2021/08/10 12:50:25;;;;;;;3.33;1.20;;;;;;;;;;4956314;29;20031;-85
2021/08/10 12:52:52;;;;;;;10.57;1.17;;;;;;;;;;4956236;29;20469;-85
2021/08/10 12:55:18;;;;;;;3.60;1.13;;;;;;;;;;4956260;29;20069;-85
2021/08/10 12:57:46;;;;;;;2.75;1.20;;;;;;;;;;4956317;29;20440;-85
2021/08/10 13:00:19;;;;;;;3.13;1.48;;;;;;;;;;4957481;28;20082;-85
2021/08/10 13:02:45;;;;;;;2.28;1.23;;;;;;;;;;4956205;29;20058;-85
2021/08/10 13:05:13;;;;;;;2.65;1.30;;;;;;;;;;4956171;29;20029;-84
2021/08/10 13:07:40;;;;;;;3.67;1.33;;;;;;;;;;4957127;28;20039;-84
2021/08/10 13:10:07;;;;;;;2.88;0.90;;;;;;;;;;4951568;28;20059;-84
2021/08/10 13:12:34;;;;;;;2.92;1.20;;;;;;;;;;4938010;29;20106;-84
2021/08/10 13:15:07;;;;;;;4.47;1.40;;;;;;;;;;4937906;29;20047;-84
2021/08/10 13:17:34;;;;;;;5.80;1.05;;;;;;;;;;4936640;29;20027;-84
2021/08/10 13:20:05;;;;;;;2.38;1.15;;;;;;;;;;4936668;29;20028;-84
2021/08/10 13:22:44;;;;;;;2.90;1.30;;;;;;;;;;4936621;29;20481;-84
2021/08/10 13:25:15;;;;;;;6.80;1.30;;;;;;;;;;4956888;29;20027;-84
2021/08/10 13:27:41;;;;;;;4.18;1.50;;;;;;;;;;4951976;29;20547;-84
2021/08/10 13:30:37;;;;;;;2.83;1.10;;;;;;;;;;4936394;29;20393;-84
2021/08/10 13:33:07;;;;;;;2.65;1.27;;;;;;;;;;4911390;29;20039;-84
2021/08/10 13:35:34;;;;;;;4.10;1.50;;;;;;;;;;4937682;29;20039;-84
2021/08/10 13:38:00;;;;;;;6.10;1.30;;;;;;;;;;4936281;29;20488;-84
2021/08/10 13:40:27;;;;;;;4.32;1.30;;;;;;;;;;4937462;29;20081;-83
2021/08/10 13:42:53;;;;;;;4.65;1.10;;;;;;;;;;4936136;29;20047;-84
2021/08/10 13:45:23;;;;;;;2.75;1.35;;;;;;;;;;4937459;29;20028;-88
2021/08/10 13:47:50;;;;;;;3.55;1.27;;;;;;;;;;4937857;29;20039;-84
2021/08/10 13:50:16;;;;;;;2.05;1.00;;;;;;;;;;4937425;29;20020;-83
2021/08/10 13:52:42;;;;;;;4.30;1.50;;;;;;;;;;4935674;29;20138;-84
2021/08/10 13:55:09;;;;;;;3.67;1.40;;;;;;;;;;4935877;29;20047;-84
2021/08/10 13:57:35;;;;;;;8.52;1.20;;;;;;;;;;4935989;29;20068;-84
2021/08/10 14:00:02;;;;;;;2.35;1.13;;;;;;;;;;4935926;29;20075;-83
2021/08/10 14:02:28;;;;;;;1.92;1.05;;;;;;;;;;4935744;29;20024;-84
2021/08/10 14:04:54;;;;;;;2.17;0.82;;;;;;;;;;4935734;29;20035;-84
2021/08/10 14:07:22;;;;;;;2.88;1.17;;;;;;;;;;4935816;29;20362;-84
2021/08/10 14:09:48;;;;;;;2.45;1.00;;;;;;;;;;4935778;29;20038;-84
2021/08/10 14:12:18;;;;;;;3.35;1.27;;;;;;;;;;4936989;29;20098;-85
2021/08/10 14:14:44;;;;;;;3.22;1.30;;;;;;;;;;4936738;29;20040;-84
2021/08/10 14:17:10;;;;;;;5.82;1.48;;;;;;;;;;4935669;29;20024;-84
2021/08/10 14:19:36;;;;;;;3.05;1.17;;;;;;;;;;4935530;29;20488;-84
2021/08/10 14:22:03;;;;;;;2.90;1.27;;;;;;;;;;4936560;29;20477;-84
2021/08/10 14:24:29;;;;;;;3.45;1.55;;;;;;;;;;4936640;29;20028;-84
2021/08/10 14:26:55;;;;;;;5.15;1.63;;;;;;;;;;4936529;29;20056;-84
2021/08/10 14:29:21;;;;;;;2.35;1.00;;;;;;;;;;4953761;28;20035;-84
2021/08/10 14:31:47;;;;;;;3.95;1.38;;;;;;;;;;4955974;29;20066;-84
2021/08/10 14:34:14;;;;;;;4.50;1.63;;;;;;;;;;4954515;29;20046;-84
2021/08/10 14:36:40;;;;;;;3.08;1.00;;;;;;;;;;4955606;29;20114;-84
2021/08/10 14:39:06;;;;;;;8.27;1.48;;;;;;;;;;4956026;29;20027;-84
2021/08/10 14:41:32;;;;;;;2.88;1.30;;;;;;;;;;4954506;29;20027;-84
2021/08/10 14:43:58;;;;;;;2.38;1.27;;;;;;;;;;4954137;29;20062;-84
2021/08/10 14:46:24;;;;;;;3.35;1.65;;;;;;;;;;4954257;29;20114;-83